首页
METAR-TAF:

METAR-TAF

机场 :

South Bend Regional Airport

南本德, 印第安纳州, 美国

纬度: 41-42-32N, 经度: 086-19-07W, 海拔: 244米

当前天气观测

该预报发布于25分钟前的14:54 UTC
风速20节,风向南转西南,有时为30节阵风
温度 27°C
湿度 51%
气压 1015 hPa
能見度: 16.1公里
天空无云

METAR: KSBN 221454Z 21020G30KT 10SM CLR 27/16 A2998 RMK AO2 PK WND 21030/1454 SLP145 T02720161 58009

时间: 11:19 (15:19 UTC)

预报

该预报发布于3小时和59分钟前的11:20 UTC
预报有效从22日的 12点(UTC)到 23日的 12点(UTC)
风速8节,风向南转西南
能見度: 10公里
多云层高于6000英尺
阴天层高于10000英尺
附近有阵雨
从 22日的 1500点(UTC)
风速15节,风向南转西南,有时为25节阵风
能見度: 10公里
散云层高于4000英尺
多云层高于12000英尺
从 22日的 2000点(UTC)
风速14节,风向南转西南,有时为24节阵风
能見度: 9.7公里
阴天层高于4000英尺
小阵雨
几率 30%
从 22日的 22点(UTC)到 23日的 02点(UTC)
能見度: 8.0公里
阴天层高于2500英尺, 积雨云.
雷暴, 小雨
从 23日的 0200点(UTC)
风速13节,风向西南
能見度: 6.4公里
阴天层高于2000英尺
小阵雨, 轻雾
从 23日的 0800点(UTC)
风速11节,风向西转西北
能見度: 10公里
多云层高于1500英尺

TAF: KSBN 221120Z 2212/2312 20008KT P6SM VCSH BKN060 OVC100 FM221500 21015G25KT P6SM SCT040 BKN120 FM222000 20014G24KT 6SM -SHRA OVC040 PROB30 2222/2302 5SM -TSRA OVC025CB FM230200 22013KT 4SM -SHRA BR OVC020 FM230800 29011KT P6SM BKN015

超过4000个机场的气象观测和天气预报(METAR&TAF报告)。

可查询的气象台以黄色和红色小点在地图上表示。

将鼠标移到小点上方,可查看气象台名称。

然后点击查看天气观测和预报。

如需切换地图:点击带黑十字的绿色按钮放大地图;点击带横线的绿色按钮缩小地图;或者点击绿色箭头查看邻近地区的地图。


METAR-TAF: